DK-0030 weather

Holsted Flyveplads (private)
Holsted, South Denmark, Denmark

Public forecast

Using degrees Celsius for public forecast. Weather courtesy of forecast.io.

METAR (pilot weather report)

Closest report is Billund Airport, 13.0 nm (24.0 km) NE. Retrieved 2019/07/23 23:20 UTC (0 seconds ago):

EKBI 232320Z AUTO 06001KT 9999 BCFG FEW003/// 13/13 Q1020

TAF (pilot weather forecast)

Closest forecast is Billund Airport, 13.0 nm (24.0 km) NE. Retrieved 2019/07/23 18:30 UTC (5 hours ago):

TAF EKBI 231705Z 2318/2418 29010KT 9999 FEW035 BECMG 2318/2320 VRB02KT BECMG 2322/2324 2500 BR TEMPO 2400/2406 0800 BCFG VV002 BECMG 2406/2408 9999 NSW